Time;durP1;ratioP1;P1;durP2;ratioP2;P2;SDS_P1;SDS_P2;PMS_P1;PMS_P2;Temp;Humidity;BMP_temperature;BMP_pressure;BME280_temperature;BME280_humidity;BME280_pressure;Samples;Min_cycle;Max_cycle;Signal;HPM_P1;HPM_P2
2022/05/08 00:02:01;;;;;;;;;9.50;8.25;;;;;12.68;64.03;102780.66;4992589;28;10156;-65
2022/05/08 00:04:28;;;;;;;;;6.00;5.75;;;;;12.74;63.73;102785.44;4993268;28;10145;-65
2022/05/08 00:06:54;;;;;;;;;7.50;4.50;;;;;12.71;63.50;102786.59;4991981;28;9945;-66
2022/05/08 00:09:20;;;;;;;;;6.75;6.25;;;;;12.73;62.69;102786.44;4984037;28;9936;-64
2022/05/08 00:11:47;;;;;;;;;6.75;5.00;;;;;12.70;62.86;102787.59;4993311;28;9989;-65
2022/05/08 00:14:13;;;;;;;;;5.50;5.00;;;;;12.76;62.62;102789.69;4993863;28;10020;-66
2022/05/08 00:16:40;;;;;;;;;12.75;8.00;;;;;12.71;62.60;102785.75;4992961;28;9922;-66
2022/05/08 00:19:06;;;;;;;;;7.00;7.00;;;;;12.65;62.75;102791.81;4992703;28;9927;-63
2022/05/08 00:21:33;;;;;;;;;6.25;6.25;;;;;12.61;63.28;102786.72;4991272;28;9769;-65
2022/05/08 00:23:59;;;;;;;;;6.00;5.50;;;;;12.51;62.95;102790.53;4985084;28;10083;-66
2022/05/08 00:26:28;;;;;;;;;7.00;7.00;;;;;12.44;63.06;102784.09;4993342;28;10640;-65
2022/05/08 00:28:55;;;;;;;;;6.25;6.25;;;;;12.42;62.98;102780.69;4991510;28;10101;-65
2022/05/08 00:31:22;;;;;;;;;11.00;7.50;;;;;12.42;63.27;102791.47;4989556;28;10035;-65
2022/05/08 00:33:48;;;;;;;;;7.75;7.00;;;;;12.47;62.75;102779.19;4986108;28;10119;-65
2022/05/08 00:36:15;;;;;;;;;7.00;6.75;;;;;12.45;62.76;102783.06;4991676;28;10828;-64
2022/05/08 00:38:41;;;;;;;;;10.00;6.25;;;;;12.46;62.70;102785.59;4993377;28;10132;-65
2022/05/08 00:41:08;;;;;;;;;5.00;5.00;;;;;12.46;62.54;102785.59;4993419;28;9855;-65
2022/05/08 00:43:40;;;;;;;;;4.00;4.00;;;;;12.38;62.56;102786.38;4988596;28;9885;-65
2022/05/08 00:46:09;;;;;;;;;5.50;5.00;;;;;12.42;62.46;102783.38;4985330;28;10014;-65
2022/05/08 00:48:37;;;;;;;;;8.00;3.00;;;;;12.45;62.79;102780.38;4991708;28;9922;-65
2022/05/08 00:51:06;;;;;;;;;5.00;5.00;;;;;12.48;62.56;102785.47;4989381;28;10816;-64
2022/05/08 00:53:35;;;;;;;;;3.00;3.00;;;;;12.48;62.32;102786.31;4989821;28;10022;-66
2022/05/08 00:56:05;;;;;;;;;9.25;7.00;;;;;12.49;62.08;102785.28;4992097;28;9875;-66
2022/05/08 00:58:33;;;;;;;;;5.50;5.50;;;;;12.49;61.81;102790.69;4991625;28;9929;-66
2022/05/08 01:01:00;;;;;;;;;3.50;2.75;;;;;12.49;61.51;102788.00;4991293;28;10096;-63
2022/05/08 01:03:27;;;;;;;;;6.75;3.00;;;;;12.48;61.77;102782.75;4991946;28;10090;-66
2022/05/08 01:05:55;;;;;;;;;9.50;4.75;;;;;12.46;61.43;102784.75;4991513;28;9923;-66
2022/05/08 01:08:22;;;;;;;;;2.75;2.75;;;;;12.35;61.77;102786.69;4990289;28;10165;-65
2022/05/08 01:10:50;;;;;;;;;5.00;5.00;;;;;12.32;62.37;102786.19;4988966;28;9926;-66
2022/05/08 01:13:16;;;;;;;;;4.50;3.75;;;;;12.33;62.49;102782.47;4989512;28;9981;-65
2022/05/08 01:15:45;;;;;;;;;8.25;2.75;;;;;12.27;61.75;102773.13;4991762;28;10014;-65
2022/05/08 01:18:13;;;;;;;;;5.25;2.00;;;;;12.25;61.77;102783.28;4992188;28;10059;-65
2022/05/08 01:20:41;;;;;;;;;5.25;3.00;;;;;12.26;61.52;102782.25;4989463;28;10054;-66
2022/05/08 01:23:09;;;;;;;;;2.00;2.00;;;;;12.22;61.93;102775.47;4990257;28;10073;-67
2022/05/08 01:25:45;;;;;;;;;4.75;2.00;;;;;12.20;61.36;102776.66;4991785;28;9951;-66
2022/05/08 01:28:13;;;;;;;;;3.25;2.50;;;;;12.18;61.33;102771.41;4982966;28;9971;-65
2022/05/08 01:30:41;;;;;;;;;5.50;5.00;;;;;12.16;61.35;102769.88;4990742;28;9770;-66
2022/05/08 01:33:08;;;;;;;;;3.00;2.00;;;;;12.24;61.19;102778.88;4990658;28;10148;-66
2022/05/08 01:35:35;;;;;;;;;8.75;4.00;;;;;12.31;61.04;102781.78;4984157;28;10841;-66
2022/05/08 01:38:03;;;;;;;;;4.00;3.50;;;;;12.38;60.35;102777.44;4988725;28;10056;-66
2022/05/08 01:40:34;;;;;;;;;5.50;4.50;;;;;12.31;60.23;102781.78;4991043;28;9949;-66
2022/05/08 01:43:02;;;;;;;;;5.25;3.00;;;;;12.09;60.45;102778.59;4991078;28;9952;-64
2022/05/08 01:45:30;;;;;;;;;2.75;2.75;;;;;12.07;61.10;102780.63;4983742;28;10812;-65
2022/05/08 01:50:43;;;;;;;;;1.75;1.75;;;;;12.09;61.10;102788.53;4981445;28;9919;-66
2022/05/08 01:53:10;;;;;;;;;2.00;1.50;;;;;12.03;61.60;102790.03;4989876;28;9763;-65
2022/05/08 01:55:37;;;;;;;;;1.75;1.75;;;;;12.09;61.31;102785.84;4992051;28;9920;-65
2022/05/08 01:58:03;;;;;;;;;3.50;2.00;;;;;12.10;60.13;102788.38;4990799;28;10024;-65
2022/05/08 02:00:31;;;;;;;;;3.00;3.00;;;;;12.04;60.43;102788.19;4989770;28;9989;-65
2022/05/08 02:03:00;;;;;;;;;6.50;2.00;;;;;11.95;61.21;102789.09;4989894;28;10136;-67
2022/05/08 02:05:30;;;;;;;;;3.00;2.00;;;;;11.95;60.95;102789.09;4984576;28;9986;-65
2022/05/08 02:07:57;;;;;;;;;4.00;4.00;;;;;11.96;61.31;102791.66;4990619;28;9922;-66
2022/05/08 02:10:24;;;;;;;;;2.25;2.25;;;;;11.97;61.44;102793.34;4991981;28;9923;-65
2022/05/08 02:12:51;;;;;;;;;4.00;3.00;;;;;11.98;60.88;102789.63;4993380;28;10009;-66
2022/05/08 02:15:21;;;;;;;;;6.00;3.50;;;;;11.99;60.38;102791.34;4991549;28;10000;-65
2022/05/08 02:17:47;;;;;;;;;2.50;2.50;;;;;11.85;60.47;102789.19;4991064;28;9942;-67
2022/05/08 02:20:14;;;;;;;;;10.00;2.00;;;;;11.68;61.24;102785.47;4988908;28;10008;-64
2022/05/08 02:22:40;;;;;;;;;3.50;3.50;;;;;11.63;61.37;102787.78;4991349;28;9850;-66
2022/05/08 02:25:07;;;;;;;;;5.25;4.25;;;;;11.65;61.48;102788.44;4990686;28;10184;-66
2022/05/08 02:27:40;;;;;;;;;5.25;4.00;;;;;11.66;61.24;102798.22;4988761;28;10045;-67
2022/05/08 02:30:11;;;;;;;;;4.50;2.25;;;;;11.75;61.09;102799.16;4989565;28;10099;-66
2022/05/08 02:32:38;;;;;;;;;3.25;2.00;;;;;11.78;61.62;102801.56;4982290;28;9942;-66
2022/05/08 02:35:06;;;;;;;;;3.00;2.00;;;;;11.86;61.61;102794.41;4988723;28;10000;-66
2022/05/08 02:37:33;;;;;;;;;1.75;1.75;;;;;11.85;61.40;102792.72;4990658;28;10102;-65
2022/05/08 02:40:00;;;;;;;;;4.00;2.00;;;;;11.89;62.03;102795.97;4991251;28;9861;-66
2022/05/08 02:42:28;;;;;;;;;5.25;3.00;;;;;11.85;61.17;102799.97;4990610;28;10088;-66
2022/05/08 02:44:54;;;;;;;;;9.25;4.75;;;;;11.69;61.91;102795.25;4991076;28;10152;-66
2022/05/08 02:47:20;;;;;;;;;3.00;3.00;;;;;11.62;62.15;102799.53;4990463;28;10019;-66
2022/05/08 02:49:47;;;;;;;;;3.00;1.25;;;;;11.63;62.42;102795.88;4988086;28;10026;-66
2022/05/08 02:52:13;;;;;;;;;3.00;2.00;;;;;11.57;61.48;102805.41;4988766;28;10085;-64
2022/05/08 02:54:40;;;;;;;;;2.50;1.50;;;;;11.51;61.53;102789.84;4991001;28;10177;-66
2022/05/08 02:59:51;;;;;;;;;3.00;3.00;;;;;11.57;61.37;102786.53;4991059;28;10067;-66
2022/05/08 03:02:17;;;;;;;;;2.75;2.75;;;;;11.57;61.24;102796.47;4991007;28;10232;-63
2022/05/08 03:04:45;;;;;;;;;1.00;1.00;;;;;11.64;61.44;102792.16;4989412;28;10206;-65
2022/05/08 03:07:13;;;;;;;;;3.75;3.00;;;;;11.65;61.04;102791.16;4990357;28;10174;-65
2022/05/08 03:09:39;;;;;;;;;7.00;4.00;;;;;11.64;60.74;102794.84;4989456;28;10183;-65
2022/05/08 03:12:06;;;;;;;;;5.50;4.75;;;;;11.61;61.09;102798.69;4990691;28;10262;-64
2022/05/08 03:14:33;;;;;;;;;2.75;2.50;;;;;11.60;60.40;102809.66;4990763;28;10114;-65
2022/05/08 03:16:59;;;;;;;;;4.50;3.25;;;;;11.57;61.07;102810.78;4990456;28;10160;-65
2022/05/08 03:19:26;;;;;;;;;2.00;2.00;;;;;11.68;60.95;102796.25;4990548;28;10094;-66
2022/05/08 03:21:52;;;;;;;;;5.00;2.00;;;;;11.70;61.13;102805.03;4990678;28;10001;-65
2022/05/08 03:24:19;;;;;;;;;6.25;5.75;;;;;11.63;60.88;102812.91;4988049;28;10112;-65
2022/05/08 03:26:46;;;;;;;;;6.00;4.50;;;;;11.61;60.85;102809.50;4989505;28;10174;-66
2022/05/08 03:29:12;;;;;;;;;3.50;2.00;;;;;11.64;61.61;102803.78;4990504;28;10225;-66
2022/05/08 03:31:42;;;;;;;;;2.25;2.25;;;;;11.71;61.49;102804.03;4990711;28;9935;-65
2022/05/08 03:34:08;;;;;;;;;5.00;2.50;;;;;11.72;60.63;102813.81;4990579;28;10149;-66
2022/05/08 03:36:34;;;;;;;;;9.00;6.50;;;;;11.60;59.64;102818.59;4992969;28;10253;-66
2022/05/08 03:39:01;;;;;;;;;2.00;2.00;;;;;11.47;59.50;102814.56;4992290;28;10234;-66
2022/05/08 03:41:28;;;;;;;;;6.50;3.50;;;;;11.42;59.66;102814.16;4986389;28;10209;-65
2022/05/08 03:43:55;;;;;;;;;5.25;3.50;;;;;11.43;60.20;102821.28;4994169;28;10303;-66
2022/05/08 03:46:22;;;;;;;;;2.00;2.00;;;;;11.42;60.24;102811.47;4994075;28;10258;-66
2022/05/08 03:48:48;;;;;;;;;9.75;4.00;;;;;11.43;60.34;102815.88;4992159;28;10088;-66
2022/05/08 03:51:15;;;;;;;;;2.75;2.75;;;;;11.46;60.45;102823.66;4986555;28;10239;-62
2022/05/08 03:53:42;;;;;;;;;5.75;3.00;;;;;11.44;60.42;102821.13;4993651;28;10320;-66
2022/05/08 03:56:08;;;;;;;;;11.00;5.75;;;;;11.42;60.61;102820.41;4991729;28;10210;-66
2022/05/08 03:58:38;;;;;;;;;1.75;1.75;;;;;11.44;61.26;102821.13;4993716;28;10355;-65
2022/05/08 04:01:05;;;;;;;;;5.50;3.50;;;;;11.57;60.97;102815.34;4981333;28;9937;-66
2022/05/08 04:03:32;;;;;;;;;2.00;2.00;;;;;11.66;60.86;102821.66;4986050;28;10087;-65
2022/05/08 04:05:58;;;;;;;;;3.75;3.00;;;;;11.69;60.63;102830.31;4992880;28;10206;-66
2022/05/08 04:08:25;;;;;;;;;2.00;2.00;;;;;11.69;60.02;102826.78;4993680;28;10280;-65
2022/05/08 04:10:51;;;;;;;;;3.50;2.00;;;;;11.61;60.25;102824.81;4988378;28;9899;-64
2022/05/08 04:13:18;;;;;;;;;3.00;3.00;;;;;11.62;60.80;102821.97;4978259;28;10102;-67
2022/05/08 04:18:31;;;;;;;;;5.00;3.00;;;;;11.59;60.71;102826.84;4987249;28;10100;-65
2022/05/08 04:20:58;;;;;;;;;4.50;2.00;;;;;11.59;60.90;102826.84;4978850;28;10129;-64
2022/05/08 04:26:09;;;;;;;;;2.50;2.00;;;;;11.67;60.84;102818.84;4983611;28;10034;-66
2022/05/08 04:28:36;;;;;;;;;3.00;3.00;;;;;11.69;60.59;102832.16;4982979;28;10838;-65
2022/05/08 04:31:04;;;;;;;;;2.75;2.00;;;;;11.71;60.27;102827.44;4992767;28;10012;-64
2022/05/08 04:33:30;;;;;;;;;5.25;2.50;;;;;11.72;60.31;102835.41;4993195;28;10101;-65
2022/05/08 04:35:57;;;;;;;;;3.00;3.00;;;;;11.77;59.82;102835.78;4992828;28;9930;-65
2022/05/08 04:38:23;;;;;;;;;2.50;2.50;;;;;11.77;59.91;102841.19;4986764;28;9929;-66
2022/05/08 04:40:49;;;;;;;;;3.00;2.00;;;;;11.72;59.44;102842.66;4978703;28;10181;-66
2022/05/08 04:43:16;;;;;;;;;5.00;1.25;;;;;11.66;59.64;102838.69;4990568;28;10077;-66
2022/05/08 04:45:42;;;;;;;;;1.75;1.75;;;;;11.60;59.81;102839.31;4988872;28;9918;-65
2022/05/08 04:48:09;;;;;;;;;2.50;2.50;;;;;11.59;60.18;102840.34;4973450;28;10156;-66
2022/05/08 04:50:35;;;;;;;;;3.25;3.25;;;;;11.62;59.97;102845.41;4986656;28;9915;-65
2022/05/08 04:53:02;;;;;;;;;3.00;3.00;;;;;11.67;59.94;102845.81;4985102;28;10084;-66
2022/05/08 04:55:28;;;;;;;;;5.00;2.25;;;;;11.67;60.39;102853.91;4991048;28;10269;-66
2022/05/08 04:57:55;;;;;;;;;2.50;2.50;;;;;11.75;59.93;102853.13;4992036;28;10009;-66
2022/05/08 05:00:21;;;;;;;;;4.25;4.00;;;;;11.76;60.04;102855.69;4992618;28;10148;-66
2022/05/08 05:02:48;;;;;;;;;2.25;2.25;;;;;11.72;59.43;102854.28;4992811;28;10087;-66
2022/05/08 05:05:15;;;;;;;;;3.00;3.00;;;;;11.69;58.95;102865.38;4990111;28;10150;-66
2022/05/08 05:07:41;;;;;;;;;3.25;3.25;;;;;11.57;59.07;102859.34;4991462;28;10173;-65
2022/05/08 05:10:11;;;;;;;;;2.00;2.00;;;;;11.44;59.97;102860.72;4986618;28;10204;-65
2022/05/08 05:12:39;;;;;;;;;2.00;2.00;;;;;11.41;60.61;102858.31;4986163;28;10245;-66
2022/05/08 05:15:06;;;;;;;;;4.50;3.00;;;;;11.49;60.45;102863.81;4989823;28;10261;-64
2022/05/08 05:17:33;;;;;;;;;4.00;3.25;;;;;11.52;60.67;102860.81;4988019;28;10172;-66
2022/05/08 05:20:01;;;;;;;;;6.00;3.00;;;;;11.59;59.98;102868.16;4991719;28;10077;-65
2022/05/08 05:22:28;;;;;;;;;6.75;3.00;;;;;11.53;59.79;102871.44;4986783;28;10890;-66
2022/05/08 05:24:56;;;;;;;;;2.00;2.00;;;;;11.54;59.42;102865.03;4984969;28;10006;-66
2022/05/08 05:27:24;;;;;;;;;4.25;2.75;;;;;11.59;58.94;102870.00;4991972;28;10083;-65
2022/05/08 05:29:51;;;;;;;;;3.00;3.00;;;;;11.58;58.33;102869.13;4990361;28;10227;-66
2022/05/08 05:32:18;;;;;;;;;5.75;2.50;;;;;11.57;58.73;102878.22;4984428;28;10258;-64
2022/05/08 05:34:44;;;;;;;;;3.50;2.00;;;;;11.64;59.30;102878.47;4987407;28;10174;-65
2022/05/08 05:37:11;;;;;;;;;5.00;1.50;;;;;11.71;58.36;102879.59;4974893;28;10180;-64
2022/05/08 05:39:37;;;;;;;;;1.50;1.25;;;;;11.63;58.69;102882.19;4989418;28;10121;-65
2022/05/08 05:42:04;;;;;;;;;5.00;2.00;;;;;11.62;59.33;102884.00;4992347;28;10235;-65
2022/05/08 05:44:30;;;;;;;;;2.75;2.75;;;;;11.59;58.42;102886.19;4990910;28;10264;-65
2022/05/08 05:49:42;;;;;;;;;5.00;2.75;;;;;11.58;58.82;102903.34;4991911;28;10165;-64
2022/05/08 05:52:08;;;;;;;;;4.50;1.00;;;;;11.56;58.87;102899.97;4991243;28;10106;-63
2022/05/08 05:54:35;;;;;;;;;5.00;2.00;;;;;11.60;59.34;102891.41;4988070;28;10023;-64
2022/05/08 05:57:02;;;;;;;;;2.00;2.00;;;;;11.66;58.71;102897.22;4988902;28;10856;-65
2022/05/08 05:59:29;;;;;;;;;3.75;3.50;;;;;11.61;59.08;102898.50;4988617;28;9981;-64
2022/05/08 06:02:11;;;;;;;;;2.00;1.00;;;;;11.65;58.89;102901.75;4989893;28;10012;-65
2022/05/08 06:04:37;;;;;;;;;2.00;1.00;;;;;11.58;58.86;102906.03;4991118;28;10100;-64
2022/05/08 06:07:04;;;;;;;;;3.50;3.50;;;;;11.52;58.91;102907.50;4994478;28;10112;-65
2022/05/08 06:09:31;;;;;;;;;2.00;1.00;;;;;11.58;59.46;102906.03;4993955;28;10238;-63
2022/05/08 06:11:58;;;;;;;;;3.50;2.00;;;;;11.64;59.37;102910.84;4988454;28;10156;-64
2022/05/08 06:14:24;;;;;;;;;4.00;2.25;;;;;11.70;58.14;102912.94;4993429;28;10019;-67
2022/05/08 06:16:51;;;;;;;;;2.75;2.75;;;;;11.69;59.25;102916.63;4989902;28;10111;-65
2022/05/08 06:19:17;;;;;;;;;2.50;2.50;;;;;11.65;58.38;102915.25;4991117;28;10547;-65
2022/05/08 06:21:50;;;;;;;;;2.25;2.25;;;;;11.59;58.87;102918.56;4991307;28;10124;-65
2022/05/08 06:24:17;;;;;;;;;2.50;2.00;;;;;11.63;58.48;102926.19;4991094;28;10877;-65
2022/05/08 06:26:44;;;;;;;;;3.75;3.75;;;;;11.48;58.19;102921.44;4984375;28;10168;-65
2022/05/08 06:29:10;;;;;;;;;4.25;3.00;;;;;11.49;59.25;102929.38;4984561;28;10184;-65
2022/05/08 06:31:37;;;;;;;;;7.00;4.50;;;;;11.49;57.98;102925.84;4985926;28;10100;-65
2022/05/08 06:34:06;;;;;;;;;5.75;4.00;;;;;11.42;57.89;102927.41;4971930;28;10090;-65
2022/05/08 06:36:33;;;;;;;;;6.00;3.25;;;;;11.38;58.13;102932.25;4978559;28;10098;-65
2022/05/08 06:39:00;;;;;;;;;5.00;3.00;;;;;11.27;57.67;102941.41;4980813;28;10142;-65
2022/05/08 06:41:27;;;;;;;;;2.75;2.75;;;;;11.29;58.61;102944.78;4984122;28;10184;-64
2022/05/08 06:43:54;;;;;;;;;3.50;3.50;;;;;11.37;58.38;102941.34;4991396;28;10083;-64
2022/05/08 06:46:20;;;;;;;;;5.50;3.50;;;;;11.42;57.24;102944.44;4990207;28;10133;-66
2022/05/08 06:48:50;;;;;;;;;2.00;2.00;;;;;11.43;57.27;102942.63;4990537;28;10260;-66
2022/05/08 06:51:16;;;;;;;;;3.00;2.00;;;;;11.54;57.39;102948.66;4978128;28;9924;-66
2022/05/08 06:53:43;;;;;;;;;2.25;1.00;;;;;11.56;57.32;102946.66;4982873;28;10847;-65
2022/05/08 06:56:13;;;;;;;;;5.00;3.50;;;;;11.65;57.59;102950.31;4982696;28;9927;-66
2022/05/08 07:01:42;;;;;;;;;3.00;2.00;;;;;11.99;56.35;102944.31;4990669;28;9901;-65
2022/05/08 07:04:11;;;;;;;;;3.50;1.50;;;;;12.05;55.58;102951.81;4991488;28;10154;-65
2022/05/08 07:06:39;;;;;;;;;2.75;2.00;;;;;12.11;56.41;102948.50;4982796;28;10706;-64
2022/05/08 07:09:13;;;;;;;;;2.00;2.00;;;;;12.31;56.00;102952.75;4988453;28;9906;-64
2022/05/08 07:11:41;;;;;;;;;1.00;1.00;;;;;12.42;54.40;102950.84;4990983;28;9998;-64
2022/05/08 07:14:11;;;;;;;;;0.00;0.00;;;;;12.45;53.95;102950.53;4992294;28;10540;-64
2022/05/08 07:16:37;;;;;;;;;2.25;2.25;;;;;12.44;54.37;102951.56;4988270;28;9814;-64
2022/05/08 07:19:04;;;;;;;;;3.25;2.00;;;;;12.28;53.43;102969.28;4994493;28;9862;-66
2022/05/08 07:21:31;;;;;;;;;1.00;1.00;;;;;12.18;54.40;102960.38;4982788;28;10569;-64
2022/05/08 07:23:57;;;;;;;;;3.50;2.00;;;;;12.31;54.05;102957.31;4982033;28;9914;-67
2022/05/08 07:26:24;;;;;;;;;2.00;2.00;;;;;12.37;53.64;102962.94;4981292;28;9709;-66
2022/05/08 07:28:50;;;;;;;;;3.00;2.50;;;;;12.44;53.67;102952.41;4986551;28;9792;-65
2022/05/08 07:31:17;;;;;;;;;4.50;2.00;;;;;12.50;52.74;102950.91;4983285;28;11042;-66
2022/05/08 07:33:44;;;;;;;;;3.25;2.00;;;;;12.71;53.45;102958.69;4988276;28;9870;-66
2022/05/08 07:36:13;;;;;;;;;2.00;2.00;;;;;12.86;52.43;102959.81;4993221;28;9810;-67
2022/05/08 07:38:47;;;;;;;;;2.75;2.00;;;;;12.68;51.26;102959.88;4990344;28;9700;-66
2022/05/08 07:41:15;;;;;;;;;1.75;1.25;;;;;12.55;52.76;102948.59;4980986;28;9587;-64
2022/05/08 07:43:45;;;;;;;;;1.00;1.00;;;;;12.66;52.75;102955.59;4993009;28;9830;-66
2022/05/08 07:46:13;;;;;;;;;4.00;2.00;;;;;12.62;51.60;102955.91;4990320;28;9731;-65
2022/05/08 07:48:40;;;;;;;;;3.00;3.00;;;;;12.64;52.11;102958.47;4983499;28;9623;-65
2022/05/08 07:51:07;;;;;;;;;2.00;2.00;;;;;12.68;51.59;102959.00;4991034;28;9913;-66
2022/05/08 07:53:33;;;;;;;;;3.00;1.25;;;;;12.62;51.83;102968.56;4984717;28;9609;-66
2022/05/08 07:56:00;;;;;;;;;3.00;3.00;;;;;12.63;52.29;102967.56;4990458;28;9739;-66
2022/05/08 07:58:28;;;;;;;;;2.50;1.50;;;;;12.73;52.44;102973.75;4989691;28;9775;-66
2022/05/08 08:01:00;;;;;;;;;3.00;2.25;;;;;12.80;51.59;102972.13;4981936;28;9673;-66
2022/05/08 08:03:30;;;;;;;;;3.00;1.00;;;;;12.83;51.31;102969.09;4974758;28;9795;-66
2022/05/08 08:05:57;;;;;;;;;2.00;2.00;;;;;12.97;51.54;102972.25;4986663;28;9777;-67
2022/05/08 08:08:39;;;;;;;;;2.00;2.00;;;;;12.95;50.24;102977.78;4981842;28;9770;-67
2022/05/08 08:11:08;;;;;;;;;1.75;1.00;;;;;12.69;50.10;102983.16;4978109;28;9773;-64
2022/05/08 08:13:35;;;;;;;;;0.50;0.50;;;;;12.57;50.71;102985.25;4987832;28;9776;-66
2022/05/08 08:16:06;;;;;;;;;2.50;2.50;;;;;12.65;50.92;102980.94;4985574;28;9782;-66
2022/05/08 08:18:35;;;;;;;;;1.50;1.50;;;;;12.77;51.11;102972.44;4990437;28;9744;-66
2022/05/08 08:21:07;;;;;;;;;2.75;2.00;;;;;12.91;50.40;102984.53;4992146;28;9754;-65
2022/05/08 08:23:33;;;;;;;;;3.75;2.50;;;;;12.81;50.36;102981.91;4980291;28;9815;-67
2022/05/08 08:26:00;;;;;;;;;1.75;1.75;;;;;12.68;50.42;102994.13;4975856;28;9859;-66
2022/05/08 08:28:27;;;;;;;;;1.00;1.00;;;;;12.61;51.16;102980.41;4989285;28;9913;-66
2022/05/08 08:30:53;;;;;;;;;7.75;6.50;;;;;12.66;51.16;102978.06;4990907;28;9822;-66
2022/05/08 08:33:22;;;;;;;;;1.75;1.75;;;;;12.80;51.42;102982.06;4991935;28;9976;-66
2022/05/08 08:35:49;;;;;;;;;1.00;1.00;;;;;12.99;50.97;102983.75;4983451;28;9761;-66
2022/05/08 08:38:16;;;;;;;;;2.00;1.00;;;;;13.09;50.55;102977.22;4990966;28;9689;-66
2022/05/08 08:40:47;;;;;;;;;3.00;3.00;;;;;13.26;50.80;102977.38;4993270;28;10448;-66
2022/05/08 08:43:16;;;;;;;;;1.25;1.00;;;;;13.39;49.58;102985.91;4987056;28;9854;-66
2022/05/08 08:48:31;;;;;;;;;2.00;1.00;;;;;13.27;49.67;102982.59;4987574;28;9605;-65
2022/05/08 08:50:59;;;;;;;;;1.25;1.25;;;;;13.32;49.70;102976.72;4987629;28;9745;-65
2022/05/08 08:53:26;;;;;;;;;2.00;2.00;;;;;13.36;49.69;102987.06;4992397;28;9679;-66
2022/05/08 08:55:56;;;;;;;;;2.00;1.00;;;;;13.46;48.69;102991.53;4992317;28;9611;-65
2022/05/08 08:58:22;;;;;;;;;1.25;1.25;;;;;13.37;48.91;102990.63;4992744;28;10295;-65
2022/05/08 09:00:50;;;;;;;;;3.00;1.00;;;;;13.37;49.11;102985.22;4992707;28;9696;-66
2022/05/08 09:03:20;;;;;;;;;4.00;1.00;;;;;13.33;48.89;102983.84;4993084;28;9743;-66
2022/05/08 09:05:46;;;;;;;;;1.00;1.00;;;;;13.36;49.04;102981.63;4990729;28;9443;-66
2022/05/08 09:08:31;;;;;;;;;1.00;1.00;;;;;13.36;48.60;102989.75;4992868;28;9543;-66
2022/05/08 09:10:58;;;;;;;;;1.00;1.00;;;;;13.35;49.52;102979.94;4991940;28;9695;-67
2022/05/08 09:13:26;;;;;;;;;3.50;2.50;;;;;13.57;49.53;102989.38;4992584;28;9616;-67
2022/05/08 09:16:04;;;;;;;;;1.00;1.00;;;;;13.66;48.38;102984.84;4991321;28;9755;-67
2022/05/08 09:18:48;;;;;;;;;2.25;1.00;;;;;13.76;48.66;102980.16;4992830;28;9453;-67
2022/05/08 09:24:11;;;;;;;;;3.00;1.50;;;;;13.54;47.82;102984.28;4995571;28;9568;-67
2022/05/08 09:26:38;;;;;;;;;2.00;2.00;;;;;13.55;47.70;102995.97;4991465;28;9596;-66
2022/05/08 09:29:05;;;;;;;;;2.00;2.00;;;;;13.46;47.85;102986.13;4990778;28;9508;-67
2022/05/08 09:31:42;;;;;;;;;2.00;1.00;;;;;13.54;48.26;102987.00;4989713;28;9506;-67
2022/05/08 09:34:14;;;;;;;;;1.00;1.00;;;;;13.63;48.25;102992.44;4990941;28;9622;-65
2022/05/08 09:36:41;;;;;;;;;2.50;2.00;;;;;13.72;48.00;102994.19;4987210;28;9640;-66
2022/05/08 09:39:08;;;;;;;;;3.00;2.00;;;;;13.74;47.42;102994.88;4991921;28;9605;-68
2022/05/08 09:41:39;;;;;;;;;1.00;1.00;;;;;13.69;48.10;102992.63;4990941;28;9697;-67
2022/05/08 09:44:16;;;;;;;;;2.00;1.00;;;;;13.78;47.90;102980.84;4991019;28;9449;-67
2022/05/08 09:46:48;;;;;;;;;2.00;2.00;;;;;13.89;48.06;102987.81;4990288;28;10060;-67
2022/05/08 09:49:21;;;;;;;;;1.75;1.75;;;;;13.79;48.05;102985.25;4990491;28;9476;-65
2022/05/08 09:51:49;;;;;;;;;2.00;2.00;;;;;13.87;48.48;102989.84;4985581;28;9523;-67
2022/05/08 09:54:17;;;;;;;;;4.00;2.25;;;;;13.86;47.62;102985.44;4991086;28;9562;-65
2022/05/08 09:56:45;;;;;;;;;1.00;1.00;;;;;13.88;48.02;102987.97;4981682;28;9465;-66
2022/05/08 09:59:13;;;;;;;;;2.00;1.00;;;;;14.04;47.58;102993.44;4990409;28;10128;-66
2022/05/08 10:01:41;;;;;;;;;2.00;2.00;;;;;14.14;47.28;102991.47;4989906;28;9452;-66
2022/05/08 10:04:08;;;;;;;;;2.25;2.00;;;;;14.06;46.51;102989.59;4982318;28;9592;-65
2022/05/08 10:06:39;;;;;;;;;2.00;2.00;;;;;14.01;46.80;102986.50;4989551;28;9465;-66
2022/05/08 10:14:36;;;;;;;;;2.50;1.50;;;;;14.04;46.78;102990.75;4978786;28;10236;-66
2022/05/08 10:17:04;;;;;;;;;2.25;2.00;;;;;14.13;46.00;102986.19;4984318;28;9571;-65
2022/05/08 10:19:31;;;;;;;;;2.00;2.00;;;;;14.20;45.52;102985.38;4990519;28;9460;-66
2022/05/08 10:22:13;;;;;;;;;3.75;3.00;;;;;14.21;46.33;102986.22;4990411;28;9441;-66
2022/05/08 10:24:39;;;;;;;;;2.00;2.00;;;;;14.08;45.82;102978.56;4972140;28;9451;-66
2022/05/08 10:27:16;;;;;;;;;3.00;2.00;;;;;14.06;46.94;102983.31;4983288;28;9399;-65
2022/05/08 10:29:49;;;;;;;;;2.33;2.00;;;;;14.22;46.96;102977.94;4990423;28;9463;-65
2022/05/08 10:32:27;;;;;;;;;5.00;5.00;;;;;14.58;47.14;102983.06;4984250;28;9419;-67
2022/05/08 10:35:03;;;;;;;;;1.00;1.00;;;;;14.56;45.84;102985.97;4989135;28;9532;-68
2022/05/08 10:37:30;;;;;;;;;4.25;2.00;;;;;14.34;45.99;102976.59;4990019;28;9223;-67
2022/05/08 10:39:57;;;;;;;;;2.00;2.00;;;;;14.09;46.50;102980.25;4987307;28;10089;-66
2022/05/08 10:42:27;;;;;;;;;2.75;2.50;;;;;14.04;47.42;102979.91;4990389;28;9467;-64
2022/05/08 10:44:57;;;;;;;;;1.00;1.00;;;;;14.08;46.77;102975.88;4990598;28;9462;-66
2022/05/08 10:47:34;;;;;;;;;3.67;2.33;;;;;14.17;46.37;102972.16;4990286;28;10138;-67
2022/05/08 10:50:05;;;;;;;;;6.33;3.00;;;;;14.25;45.68;102972.16;4987859;28;9460;-67
2022/05/08 10:52:33;;;;;;;;;5.00;3.00;;;;;14.19;46.10;102972.00;4982245;28;9440;-68
2022/05/08 10:55:02;;;;;;;;;1.00;1.00;;;;;14.30;46.02;102968.94;4991176;28;9584;-68
2022/05/08 10:57:35;;;;;;;;;3.00;1.50;;;;;14.44;45.45;102964.75;4990165;28;9474;-66
2022/05/08 11:00:07;;;;;;;;;2.75;2.75;;;;;14.47;44.00;102962.56;4990733;28;9627;-67
2022/05/08 11:02:44;;;;;;;;;4.25;2.00;;;;;14.44;45.36;102960.19;4987231;28;9592;-67
2022/05/08 11:05:12;;;;;;;;;5.00;2.33;;;;;14.53;45.32;102961.91;4975416;28;9512;-66
2022/05/08 11:07:46;;;;;;;;;3.67;3.00;;;;;14.59;45.33;102969.38;4987623;28;9395;-66
2022/05/08 11:10:15;;;;;;;;;4.00;3.00;;;;;14.57;44.30;102973.25;4990352;28;9307;-66
2022/05/08 11:13:11;;;;;;;;;3.75;3.75;;;;;14.38;44.78;102970.84;4991081;28;9392;-66
2022/05/08 11:15:44;;;;;;;;;2.00;2.00;;;;;14.41;45.58;102959.66;4990382;28;9525;-65
2022/05/08 11:18:15;;;;;;;;;1.25;1.00;;;;;14.43;44.86;102971.19;4990492;28;10229;-67
2022/05/08 11:20:54;;;;;;;;;2.00;2.00;;;;;14.22;44.94;102980.66;4990728;28;10189;-66
2022/05/08 11:23:22;;;;;;;;;4.00;3.00;;;;;14.14;44.77;102967.09;4990778;28;9435;-68
2022/05/08 11:26:05;;;;;;;;;5.50;3.00;;;;;14.22;45.42;102966.22;4989037;28;9406;-67
2022/05/08 11:28:34;;;;;;;;;6.25;5.00;;;;;14.48;45.25;102968.81;4981715;28;9464;-67
2022/05/08 11:31:13;;;;;;;;;3.00;3.00;;;;;14.52;43.84;102973.78;4990419;28;9404;-66
2022/05/08 11:36:30;;;;;;;;;3.50;2.00;;;;;14.74;44.14;102953.25;4990564;28;9613;-67
2022/05/08 11:39:05;;;;;;;;;3.33;1.67;;;;;14.85;44.56;102952.09;4989895;28;9545;-68
2022/05/08 11:41:31;;;;;;;;;2.25;2.00;;;;;14.90;44.89;102951.56;4989152;28;9394;-66
2022/05/08 11:44:02;;;;;;;;;2.00;2.00;;;;;14.97;44.54;102950.72;4987798;28;9387;-67
2022/05/08 11:46:34;;;;;;;;;4.00;4.00;;;;;15.02;43.20;102951.03;4982152;28;9597;-67
2022/05/08 11:49:11;;;;;;;;;2.00;1.00;;;;;14.95;44.73;102947.34;4990519;28;9574;-67
2022/05/08 11:51:43;;;;;;;;;4.50;4.50;;;;;15.03;43.60;102949.19;4990079;28;9301;-66
2022/05/08 11:54:32;;;;;;;;;2.33;2.33;;;;;15.06;44.03;102935.25;4989394;28;9648;-68
2022/05/08 11:57:11;;;;;;;;;2.00;2.00;;;;;15.12;44.10;102948.16;4989569;28;9399;-69
2022/05/08 11:59:38;;;;;;;;;2.33;2.00;;;;;15.18;44.37;102938.47;4994334;28;9327;-68
2022/05/08 12:02:04;;;;;;;;;3.00;3.00;;;;;15.21;43.87;102941.69;4993786;28;9378;-68
2022/05/08 12:04:33;;;;;;;;;3.67;2.00;;;;;15.28;44.29;102944.56;4994115;28;9339;-68
2022/05/08 12:07:05;;;;;;;;;2.00;2.00;;;;;15.32;44.26;102945.91;4993160;28;9352;-67